sensor_id;sensor_type;location;lat;lon;timestamp;P1;durP1;ratioP1;P2;durP2;ratioP2
49948;SDS011;35840;45.982;8.890;2023-01-28T00:01:11;33.50;;;17.08;;
49948;SDS011;35840;45.982;8.890;2023-01-28T00:03:39;34.78;;;18.25;;
49948;SDS011;35840;45.982;8.890;2023-01-28T00:06:08;30.30;;;16.30;;
49948;SDS011;35840;45.982;8.890;2023-01-28T00:08:39;41.17;;;16.80;;
49948;SDS011;35840;45.982;8.890;2023-01-28T00:11:06;38.33;;;17.33;;
49948;SDS011;35840;45.982;8.890;2023-01-28T00:13:35;33.00;;;16.38;;
49948;SDS011;35840;45.982;8.890;2023-01-28T00:16:02;33.42;;;17.48;;
49948;SDS011;35840;45.982;8.890;2023-01-28T00:18:31;31.55;;;16.15;;
49948;SDS011;35840;45.982;8.890;2023-01-28T00:20:59;31.35;;;15.45;;
49948;SDS011;35840;45.982;8.890;2023-01-28T00:23:28;34.20;;;14.68;;
49948;SDS011;35840;45.982;8.890;2023-01-28T00:25:59;29.02;;;16.58;;
49948;SDS011;35840;45.982;8.890;2023-01-28T00:28:27;34.75;;;16.15;;
49948;SDS011;35840;45.982;8.890;2023-01-28T00:30:54;32.80;;;16.23;;
49948;SDS011;35840;45.982;8.890;2023-01-28T00:33:21;29.38;;;17.52;;
49948;SDS011;35840;45.982;8.890;2023-01-28T00:35:58;32.72;;;16.45;;
49948;SDS011;35840;45.982;8.890;2023-01-28T00:38:26;33.72;;;16.08;;
49948;SDS011;35840;45.982;8.890;2023-01-28T00:40:53;28.42;;;15.00;;
49948;SDS011;35840;45.982;8.890;2023-01-28T00:43:21;29.13;;;15.15;;
49948;SDS011;35840;45.982;8.890;2023-01-28T00:45:48;32.63;;;17.00;;
49948;SDS011;35840;45.982;8.890;2023-01-28T00:48:15;31.70;;;16.90;;
49948;SDS011;35840;45.982;8.890;2023-01-28T00:50:44;33.03;;;15.98;;
49948;SDS011;35840;45.982;8.890;2023-01-28T00:53:12;34.50;;;17.20;;
49948;SDS011;35840;45.982;8.890;2023-01-28T00:55:39;34.05;;;16.77;;
49948;SDS011;35840;45.982;8.890;2023-01-28T00:58:07;32.40;;;16.13;;
49948;SDS011;35840;45.982;8.890;2023-01-28T01:00:34;33.30;;;15.35;;
49948;SDS011;35840;45.982;8.890;2023-01-28T01:03:00;31.17;;;16.65;;
49948;SDS011;35840;45.982;8.890;2023-01-28T01:05:27;31.80;;;17.10;;
49948;SDS011;35840;45.982;8.890;2023-01-28T01:07:55;35.38;;;18.60;;
49948;SDS011;35840;45.982;8.890;2023-01-28T01:10:21;39.30;;;19.48;;
49948;SDS011;35840;45.982;8.890;2023-01-28T01:12:48;30.50;;;17.00;;
49948;SDS011;35840;45.982;8.890;2023-01-28T01:15:15;36.50;;;17.15;;
49948;SDS011;35840;45.982;8.890;2023-01-28T01:17:44;30.00;;;15.70;;
49948;SDS011;35840;45.982;8.890;2023-01-28T01:20:23;30.60;;;15.90;;
49948;SDS011;35840;45.982;8.890;2023-01-28T01:22:51;31.50;;;15.80;;
49948;SDS011;35840;45.982;8.890;2023-01-28T01:25:18;31.80;;;16.67;;
49948;SDS011;35840;45.982;8.890;2023-01-28T01:27:49;36.35;;;17.05;;
49948;SDS011;35840;45.982;8.890;2023-01-28T01:30:16;36.05;;;16.58;;
49948;SDS011;35840;45.982;8.890;2023-01-28T01:32:43;35.58;;;17.23;;
49948;SDS011;35840;45.982;8.890;2023-01-28T01:35:10;36.53;;;17.73;;
49948;SDS011;35840;45.982;8.890;2023-01-28T01:37:38;31.02;;;15.73;;
49948;SDS011;35840;45.982;8.890;2023-01-28T01:40:05;35.53;;;17.30;;
49948;SDS011;35840;45.982;8.890;2023-01-28T01:42:32;33.15;;;17.73;;
49948;SDS011;35840;45.982;8.890;2023-01-28T01:45:01;31.48;;;16.02;;
49948;SDS011;35840;45.982;8.890;2023-01-28T01:47:30;32.80;;;16.25;;
49948;SDS011;35840;45.982;8.890;2023-01-28T01:50:07;32.93;;;17.00;;
49948;SDS011;35840;45.982;8.890;2023-01-28T01:52:42;33.40;;;16.45;;
49948;SDS011;35840;45.982;8.890;2023-01-28T01:55:13;32.95;;;15.95;;
49948;SDS011;35840;45.982;8.890;2023-01-28T01:57:43;32.20;;;18.65;;
49948;SDS011;35840;45.982;8.890;2023-01-28T02:00:13;36.25;;;17.65;;
49948;SDS011;35840;45.982;8.890;2023-01-28T02:02:42;29.27;;;16.33;;
49948;SDS011;35840;45.982;8.890;2023-01-28T02:05:12;28.13;;;15.85;;
49948;SDS011;35840;45.982;8.890;2023-01-28T02:07:42;29.80;;;16.15;;
49948;SDS011;35840;45.982;8.890;2023-01-28T02:10:10;30.02;;;15.75;;
49948;SDS011;35840;45.982;8.890;2023-01-28T02:12:39;31.02;;;16.00;;
49948;SDS011;35840;45.982;8.890;2023-01-28T02:15:11;35.17;;;16.77;;
49948;SDS011;35840;45.982;8.890;2023-01-28T02:17:42;32.55;;;16.13;;
49948;SDS011;35840;45.982;8.890;2023-01-28T02:20:10;34.10;;;16.75;;
49948;SDS011;35840;45.982;8.890;2023-01-28T02:30:38;30.15;;;16.83;;
49948;SDS011;35840;45.982;8.890;2023-01-28T02:33:13;34.80;;;18.25;;
49948;SDS011;35840;45.982;8.890;2023-01-28T02:35:47;31.52;;;16.33;;
49948;SDS011;35840;45.982;8.890;2023-01-28T02:38:23;35.55;;;18.40;;
49948;SDS011;35840;45.982;8.890;2023-01-28T02:43:36;30.77;;;14.88;;
49948;SDS011;35840;45.982;8.890;2023-01-28T02:49:10;32.08;;;17.83;;
49948;SDS011;35840;45.982;8.890;2023-01-28T02:51:48;26.27;;;15.63;;
49948;SDS011;35840;45.982;8.890;2023-01-28T02:56:50;35.05;;;17.45;;
49948;SDS011;35840;45.982;8.890;2023-01-28T03:03:08;36.63;;;18.30;;
49948;SDS011;35840;45.982;8.890;2023-01-28T03:05:27;33.53;;;16.90;;
49948;SDS011;35840;45.982;8.890;2023-01-28T03:08:01;35.17;;;18.02;;
49948;SDS011;35840;45.982;8.890;2023-01-28T03:10:51;33.55;;;17.90;;
49948;SDS011;35840;45.982;8.890;2023-01-28T03:13:39;29.60;;;16.23;;
49948;SDS011;35840;45.982;8.890;2023-01-28T03:16:25;34.45;;;17.52;;
49948;SDS011;35840;45.982;8.890;2023-01-28T03:19:12;32.13;;;16.52;;
49948;SDS011;35840;45.982;8.890;2023-01-28T03:21:58;34.38;;;16.38;;
49948;SDS011;35840;45.982;8.890;2023-01-28T03:24:47;37.30;;;17.85;;
49948;SDS011;35840;45.982;8.890;2023-01-28T03:27:44;33.08;;;17.55;;
49948;SDS011;35840;45.982;8.890;2023-01-28T03:30:33;34.80;;;17.60;;
49948;SDS011;35840;45.982;8.890;2023-01-28T03:33:36;34.30;;;17.73;;
49948;SDS011;35840;45.982;8.890;2023-01-28T03:36:22;34.70;;;17.77;;
49948;SDS011;35840;45.982;8.890;2023-01-28T03:39:24;33.45;;;17.25;;
49948;SDS011;35840;45.982;8.890;2023-01-28T03:41:57;29.83;;;16.10;;
49948;SDS011;35840;45.982;8.890;2023-01-28T03:44:24;34.88;;;17.48;;
49948;SDS011;35840;45.982;8.890;2023-01-28T03:47:10;29.20;;;15.65;;
49948;SDS011;35840;45.982;8.890;2023-01-28T03:49:42;38.55;;;16.60;;
49948;SDS011;35840;45.982;8.890;2023-01-28T03:52:18;28.40;;;15.73;;
49948;SDS011;35840;45.982;8.890;2023-01-28T03:55:08;32.83;;;17.63;;
49948;SDS011;35840;45.982;8.890;2023-01-28T03:57:41;32.58;;;15.50;;
49948;SDS011;35840;45.982;8.890;2023-01-28T04:00:11;35.35;;;16.95;;
49948;SDS011;35840;45.982;8.890;2023-01-28T04:02:41;30.52;;;16.02;;
49948;SDS011;35840;45.982;8.890;2023-01-28T04:05:11;28.33;;;15.82;;
49948;SDS011;35840;45.982;8.890;2023-01-28T04:07:44;30.23;;;15.75;;
49948;SDS011;35840;45.982;8.890;2023-01-28T04:10:16;28.50;;;15.13;;
49948;SDS011;35840;45.982;8.890;2023-01-28T04:13:06;31.80;;;17.38;;
49948;SDS011;35840;45.982;8.890;2023-01-28T04:15:33;29.83;;;16.17;;
49948;SDS011;35840;45.982;8.890;2023-01-28T04:18:01;33.28;;;15.32;;
49948;SDS011;35840;45.982;8.890;2023-01-28T04:20:29;28.48;;;15.98;;
49948;SDS011;35840;45.982;8.890;2023-01-28T04:22:58;27.83;;;14.95;;
49948;SDS011;35840;45.982;8.890;2023-01-28T04:25:25;30.15;;;13.88;;
49948;SDS011;35840;45.982;8.890;2023-01-28T04:27:52;32.40;;;15.00;;
49948;SDS011;35840;45.982;8.890;2023-01-28T04:30:21;28.48;;;14.85;;
49948;SDS011;35840;45.982;8.890;2023-01-28T04:33:08;32.70;;;16.30;;
49948;SDS011;35840;45.982;8.890;2023-01-28T04:36:01;29.75;;;15.60;;
49948;SDS011;35840;45.982;8.890;2023-01-28T04:38:48;30.23;;;16.00;;
49948;SDS011;35840;45.982;8.890;2023-01-28T04:41:41;33.00;;;15.65;;
49948;SDS011;35840;45.982;8.890;2023-01-28T04:44:23;30.90;;;16.23;;
49948;SDS011;35840;45.982;8.890;2023-01-28T04:47:08;30.53;;;16.00;;
49948;SDS011;35840;45.982;8.890;2023-01-28T04:52:35;28.20;;;15.63;;
49948;SDS011;35840;45.982;8.890;2023-01-28T04:55:21;28.30;;;15.25;;
49948;SDS011;35840;45.982;8.890;2023-01-28T04:57:48;34.35;;;17.48;;
49948;SDS011;35840;45.982;8.890;2023-01-28T05:00:16;27.83;;;15.50;;
49948;SDS011;35840;45.982;8.890;2023-01-28T05:02:43;31.73;;;16.50;;
49948;SDS011;35840;45.982;8.890;2023-01-28T05:05:10;33.80;;;16.23;;
49948;SDS011;35840;45.982;8.890;2023-01-28T05:07:53;31.38;;;15.80;;
49948;SDS011;35840;45.982;8.890;2023-01-28T05:10:22;32.85;;;16.38;;
49948;SDS011;35840;45.982;8.890;2023-01-28T05:12:49;31.27;;;15.43;;
49948;SDS011;35840;45.982;8.890;2023-01-28T05:15:17;36.67;;;15.88;;
49948;SDS011;35840;45.982;8.890;2023-01-28T05:17:46;31.30;;;16.35;;
49948;SDS011;35840;45.982;8.890;2023-01-28T05:20:15;32.20;;;16.38;;
49948;SDS011;35840;45.982;8.890;2023-01-28T05:22:44;31.45;;;16.15;;
49948;SDS011;35840;45.982;8.890;2023-01-28T05:25:24;31.00;;;15.18;;
49948;SDS011;35840;45.982;8.890;2023-01-28T05:27:50;30.52;;;15.70;;
49948;SDS011;35840;45.982;8.890;2023-01-28T05:30:18;31.67;;;15.57;;
49948;SDS011;35840;45.982;8.890;2023-01-28T05:32:46;28.90;;;14.40;;
49948;SDS011;35840;45.982;8.890;2023-01-28T05:35:15;29.92;;;14.23;;
49948;SDS011;35840;45.982;8.890;2023-01-28T05:37:43;28.05;;;14.93;;
49948;SDS011;35840;45.982;8.890;2023-01-28T05:40:10;34.13;;;15.25;;
49948;SDS011;35840;45.982;8.890;2023-01-28T05:42:37;31.88;;;16.00;;
49948;SDS011;35840;45.982;8.890;2023-01-28T05:45:19;30.55;;;14.75;;
49948;SDS011;35840;45.982;8.890;2023-01-28T05:47:59;26.77;;;15.55;;
49948;SDS011;35840;45.982;8.890;2023-01-28T05:50:42;28.20;;;15.23;;
49948;SDS011;35840;45.982;8.890;2023-01-28T05:53:18;32.75;;;14.77;;
49948;SDS011;35840;45.982;8.890;2023-01-28T05:55:49;30.98;;;15.52;;
49948;SDS011;35840;45.982;8.890;2023-01-28T05:58:19;27.88;;;14.80;;
49948;SDS011;35840;45.982;8.890;2023-01-28T06:00:46;28.67;;;15.98;;
49948;SDS011;35840;45.982;8.890;2023-01-28T06:03:15;26.38;;;13.32;;
49948;SDS011;35840;45.982;8.890;2023-01-28T06:05:42;30.23;;;14.68;;
49948;SDS011;35840;45.982;8.890;2023-01-28T06:08:09;30.85;;;15.90;;
49948;SDS011;35840;45.982;8.890;2023-01-28T06:10:36;29.13;;;15.00;;
49948;SDS011;35840;45.982;8.890;2023-01-28T06:13:03;29.95;;;14.65;;
49948;SDS011;35840;45.982;8.890;2023-01-28T06:15:51;25.90;;;13.82;;
49948;SDS011;35840;45.982;8.890;2023-01-28T06:18:35;26.27;;;14.55;;
49948;SDS011;35840;45.982;8.890;2023-01-28T06:21:01;26.10;;;13.55;;
49948;SDS011;35840;45.982;8.890;2023-01-28T06:23:29;29.33;;;15.15;;
49948;SDS011;35840;45.982;8.890;2023-01-28T06:25:56;34.15;;;15.38;;
49948;SDS011;35840;45.982;8.890;2023-01-28T06:28:23;30.67;;;14.82;;
49948;SDS011;35840;45.982;8.890;2023-01-28T06:30:51;25.02;;;14.07;;
49948;SDS011;35840;45.982;8.890;2023-01-28T06:33:19;27.13;;;14.10;;
49948;SDS011;35840;45.982;8.890;2023-01-28T06:35:46;24.55;;;14.23;;
49948;SDS011;35840;45.982;8.890;2023-01-28T06:38:13;26.13;;;14.02;;
49948;SDS011;35840;45.982;8.890;2023-01-28T06:40:40;32.38;;;13.95;;
49948;SDS011;35840;45.982;8.890;2023-01-28T06:43:06;27.20;;;13.80;;
49948;SDS011;35840;45.982;8.890;2023-01-28T06:45:33;28.05;;;15.23;;
49948;SDS011;35840;45.982;8.890;2023-01-28T06:48:00;26.45;;;13.93;;
49948;SDS011;35840;45.982;8.890;2023-01-28T06:50:28;28.08;;;12.43;;
49948;SDS011;35840;45.982;8.890;2023-01-28T06:52:55;28.80;;;14.35;;
49948;SDS011;35840;45.982;8.890;2023-01-28T06:55:21;26.98;;;13.70;;
49948;SDS011;35840;45.982;8.890;2023-01-28T06:57:48;29.48;;;15.18;;
49948;SDS011;35840;45.982;8.890;2023-01-28T07:00:15;28.90;;;14.55;;
49948;SDS011;35840;45.982;8.890;2023-01-28T07:02:43;27.85;;;13.50;;
49948;SDS011;35840;45.982;8.890;2023-01-28T07:05:10;31.52;;;13.50;;
49948;SDS011;35840;45.982;8.890;2023-01-28T07:07:37;26.77;;;13.48;;
49948;SDS011;35840;45.982;8.890;2023-01-28T07:10:07;29.10;;;14.18;;
49948;SDS011;35840;45.982;8.890;2023-01-28T07:12:34;30.85;;;14.80;;
49948;SDS011;35840;45.982;8.890;2023-01-28T07:15:01;31.15;;;14.10;;
49948;SDS011;35840;45.982;8.890;2023-01-28T07:17:28;26.02;;;14.77;;
49948;SDS011;35840;45.982;8.890;2023-01-28T07:19:54;24.48;;;12.95;;
49948;SDS011;35840;45.982;8.890;2023-01-28T07:22:21;28.35;;;13.82;;
49948;SDS011;35840;45.982;8.890;2023-01-28T07:24:48;25.88;;;13.63;;
49948;SDS011;35840;45.982;8.890;2023-01-28T07:27:14;23.48;;;12.85;;
49948;SDS011;35840;45.982;8.890;2023-01-28T07:29:41;22.77;;;12.43;;
49948;SDS011;35840;45.982;8.890;2023-01-28T07:32:08;23.05;;;13.32;;
49948;SDS011;35840;45.982;8.890;2023-01-28T07:34:34;24.92;;;12.18;;
49948;SDS011;35840;45.982;8.890;2023-01-28T07:37:05;27.92;;;12.90;;
49948;SDS011;35840;45.982;8.890;2023-01-28T07:39:32;26.25;;;12.98;;
49948;SDS011;35840;45.982;8.890;2023-01-28T07:42:00;27.27;;;13.40;;
49948;SDS011;35840;45.982;8.890;2023-01-28T07:44:40;23.63;;;12.60;;
49948;SDS011;35840;45.982;8.890;2023-01-28T07:47:07;28.13;;;14.65;;
49948;SDS011;35840;45.982;8.890;2023-01-28T07:49:33;28.90;;;13.70;;
49948;SDS011;35840;45.982;8.890;2023-01-28T07:52:00;25.30;;;12.15;;
49948;SDS011;35840;45.982;8.890;2023-01-28T07:54:27;24.55;;;12.20;;
49948;SDS011;35840;45.982;8.890;2023-01-28T07:56:54;26.40;;;12.75;;
49948;SDS011;35840;45.982;8.890;2023-01-28T07:59:21;25.10;;;13.50;;
49948;SDS011;35840;45.982;8.890;2023-01-28T08:01:48;26.75;;;13.20;;
49948;SDS011;35840;45.982;8.890;2023-01-28T08:04:14;22.83;;;13.18;;
49948;SDS011;35840;45.982;8.890;2023-01-28T08:06:41;27.80;;;14.20;;
49948;SDS011;35840;45.982;8.890;2023-01-28T08:09:08;28.27;;;13.73;;
49948;SDS011;35840;45.982;8.890;2023-01-28T08:11:36;30.55;;;13.60;;
49948;SDS011;35840;45.982;8.890;2023-01-28T08:14:04;27.92;;;14.63;;
49948;SDS011;35840;45.982;8.890;2023-01-28T08:16:31;23.90;;;13.88;;
49948;SDS011;35840;45.982;8.890;2023-01-28T08:18:58;29.55;;;14.15;;
49948;SDS011;35840;45.982;8.890;2023-01-28T08:21:24;33.05;;;16.38;;
49948;SDS011;35840;45.982;8.890;2023-01-28T08:23:51;24.48;;;13.20;;
49948;SDS011;35840;45.982;8.890;2023-01-28T08:26:18;29.35;;;14.77;;
49948;SDS011;35840;45.982;8.890;2023-01-28T08:28:44;27.80;;;14.50;;
49948;SDS011;35840;45.982;8.890;2023-01-28T08:31:11;29.63;;;16.45;;
49948;SDS011;35840;45.982;8.890;2023-01-28T08:33:38;32.60;;;14.68;;
49948;SDS011;35840;45.982;8.890;2023-01-28T08:36:04;30.60;;;15.70;;
49948;SDS011;35840;45.982;8.890;2023-01-28T08:38:32;34.65;;;17.20;;
49948;SDS011;35840;45.982;8.890;2023-01-28T08:40:59;29.13;;;15.73;;
49948;SDS011;35840;45.982;8.890;2023-01-28T08:43:25;30.80;;;15.02;;
49948;SDS011;35840;45.982;8.890;2023-01-28T08:45:52;32.28;;;16.10;;
49948;SDS011;35840;45.982;8.890;2023-01-28T08:48:19;26.20;;;14.95;;
49948;SDS011;35840;45.982;8.890;2023-01-28T08:50:45;30.73;;;15.63;;
49948;SDS011;35840;45.982;8.890;2023-01-28T08:53:13;30.48;;;14.70;;
49948;SDS011;35840;45.982;8.890;2023-01-28T08:55:42;35.22;;;16.50;;
49948;SDS011;35840;45.982;8.890;2023-01-28T08:58:10;30.55;;;15.75;;
49948;SDS011;35840;45.982;8.890;2023-01-28T09:00:42;29.38;;;14.50;;
49948;SDS011;35840;45.982;8.890;2023-01-28T09:03:10;27.65;;;14.82;;
49948;SDS011;35840;45.982;8.890;2023-01-28T09:05:37;31.42;;;15.05;;
49948;SDS011;35840;45.982;8.890;2023-01-28T09:08:07;29.40;;;15.88;;
49948;SDS011;35840;45.982;8.890;2023-01-28T09:10:36;26.88;;;14.90;;
49948;SDS011;35840;45.982;8.890;2023-01-28T09:13:07;29.40;;;15.05;;
49948;SDS011;35840;45.982;8.890;2023-01-28T09:15:35;24.95;;;15.35;;
49948;SDS011;35840;45.982;8.890;2023-01-28T09:18:03;29.70;;;15.40;;
49948;SDS011;35840;45.982;8.890;2023-01-28T09:20:31;29.88;;;14.32;;
49948;SDS011;35840;45.982;8.890;2023-01-28T09:22:58;26.95;;;15.13;;
49948;SDS011;35840;45.982;8.890;2023-01-28T09:25:26;26.92;;;14.07;;
49948;SDS011;35840;45.982;8.890;2023-01-28T09:27:53;27.65;;;14.00;;
49948;SDS011;35840;45.982;8.890;2023-01-28T09:30:20;29.75;;;15.40;;
49948;SDS011;35840;45.982;8.890;2023-01-28T09:32:50;27.08;;;13.48;;
49948;SDS011;35840;45.982;8.890;2023-01-28T09:35:20;26.40;;;13.50;;
49948;SDS011;35840;45.982;8.890;2023-01-28T09:37:48;26.40;;;14.80;;
49948;SDS011;35840;45.982;8.890;2023-01-28T09:40:19;29.95;;;15.15;;
49948;SDS011;35840;45.982;8.890;2023-01-28T09:47:55;25.55;;;13.57;;
49948;SDS011;35840;45.982;8.890;2023-01-28T09:52:58;28.63;;;14.15;;
49948;SDS011;35840;45.982;8.890;2023-01-28T09:55:31;26.38;;;13.48;;
49948;SDS011;35840;45.982;8.890;2023-01-28T09:57:58;36.83;;;14.52;;
49948;SDS011;35840;45.982;8.890;2023-01-28T10:00:29;26.83;;;13.48;;
49948;SDS011;35840;45.982;8.890;2023-01-28T10:06:11;24.38;;;13.60;;
49948;SDS011;35840;45.982;8.890;2023-01-28T10:17:44;24.50;;;13.38;;
49948;SDS011;35840;45.982;8.890;2023-01-28T10:25:42;26.73;;;14.32;;
49948;SDS011;35840;45.982;8.890;2023-01-28T10:28:23;25.35;;;12.95;;
49948;SDS011;35840;45.982;8.890;2023-01-28T10:30:54;22.42;;;12.68;;
49948;SDS011;35840;45.982;8.890;2023-01-28T10:33:27;24.40;;;13.65;;
49948;SDS011;35840;45.982;8.890;2023-01-28T10:36:01;26.02;;;12.70;;
49948;SDS011;35840;45.982;8.890;2023-01-28T10:38:29;24.45;;;12.88;;
49948;SDS011;35840;45.982;8.890;2023-01-28T10:40:58;28.17;;;13.75;;
49948;SDS011;35840;45.982;8.890;2023-01-28T10:43:32;27.35;;;14.32;;
49948;SDS011;35840;45.982;8.890;2023-01-28T10:49:15;24.50;;;12.52;;
49948;SDS011;35840;45.982;8.890;2023-01-28T10:51:47;28.70;;;14.57;;
49948;SDS011;35840;45.982;8.890;2023-01-28T10:54:24;25.45;;;13.35;;
49948;SDS011;35840;45.982;8.890;2023-01-28T10:57:08;28.08;;;14.10;;
49948;SDS011;35840;45.982;8.890;2023-01-28T10:59:41;29.67;;;14.57;;
49948;SDS011;35840;45.982;8.890;2023-01-28T11:05:04;32.10;;;15.60;;
49948;SDS011;35840;45.982;8.890;2023-01-28T11:07:40;26.10;;;13.80;;
49948;SDS011;35840;45.982;8.890;2023-01-28T11:12:55;31.13;;;13.23;;
49948;SDS011;35840;45.982;8.890;2023-01-28T11:15:23;23.88;;;13.68;;
49948;SDS011;35840;45.982;8.890;2023-01-28T11:18:14;25.92;;;14.23;;
49948;SDS011;35840;45.982;8.890;2023-01-28T11:20:53;26.13;;;14.20;;
49948;SDS011;35840;45.982;8.890;2023-01-28T11:23:27;27.50;;;14.65;;
49948;SDS011;35840;45.982;8.890;2023-01-28T11:26:04;23.30;;;13.18;;
49948;SDS011;35840;45.982;8.890;2023-01-28T11:28:33;22.00;;;12.73;;
49948;SDS011;35840;45.982;8.890;2023-01-28T11:31:01;27.83;;;13.95;;
49948;SDS011;35840;45.982;8.890;2023-01-28T11:35:56;22.13;;;12.25;;
49948;SDS011;35840;45.982;8.890;2023-01-28T11:38:31;28.88;;;14.40;;
49948;SDS011;35840;45.982;8.890;2023-01-28T11:40:58;27.13;;;12.95;;
49948;SDS011;35840;45.982;8.890;2023-01-28T11:43:27;25.63;;;13.30;;
49948;SDS011;35840;45.982;8.890;2023-01-28T11:51:59;20.05;;;11.18;;
49948;SDS011;35840;45.982;8.890;2023-01-28T11:57:25;20.67;;;11.18;;
49948;SDS011;35840;45.982;8.890;2023-01-28T12:00:23;24.23;;;11.82;;
49948;SDS011;35840;45.982;8.890;2023-01-28T12:03:17;16.67;;;9.82;;
49948;SDS011;35840;45.982;8.890;2023-01-28T12:47:42;18.90;;;10.57;;
49948;SDS011;35840;45.982;8.890;2023-01-28T12:50:20;19.60;;;10.60;;
49948;SDS011;35840;45.982;8.890;2023-01-28T12:53:01;19.45;;;9.85;;
49948;SDS011;35840;45.982;8.890;2023-01-28T12:55:43;17.15;;;10.00;;
49948;SDS011;35840;45.982;8.890;2023-01-28T12:58:18;20.65;;;10.07;;
49948;SDS011;35840;45.982;8.890;2023-01-28T13:00:51;19.15;;;10.25;;
49948;SDS011;35840;45.982;8.890;2023-01-28T13:03:36;18.13;;;9.77;;
49948;SDS011;35840;45.982;8.890;2023-01-28T13:11:36;17.85;;;9.63;;
49948;SDS011;35840;45.982;8.890;2023-01-28T13:14:04;22.48;;;10.23;;
49948;SDS011;35840;45.982;8.890;2023-01-28T13:16:32;19.73;;;10.60;;
49948;SDS011;35840;45.982;8.890;2023-01-28T13:19:24;18.23;;;9.93;;
49948;SDS011;35840;45.982;8.890;2023-01-28T13:22:09;16.88;;;10.32;;
49948;SDS011;35840;45.982;8.890;2023-01-28T13:24:51;18.50;;;9.07;;
49948;SDS011;35840;45.982;8.890;2023-01-28T13:27:25;13.57;;;8.07;;
49948;SDS011;35840;45.982;8.890;2023-01-28T13:30:00;19.13;;;9.88;;
49948;SDS011;35840;45.982;8.890;2023-01-28T13:32:53;15.25;;;9.25;;
49948;SDS011;35840;45.982;8.890;2023-01-28T13:35:37;15.77;;;9.10;;
49948;SDS011;35840;45.982;8.890;2023-01-28T13:38:06;21.48;;;10.13;;
49948;SDS011;35840;45.982;8.890;2023-01-28T13:40:54;16.02;;;9.15;;
49948;SDS011;35840;45.982;8.890;2023-01-28T13:45:59;15.88;;;8.88;;
49948;SDS011;35840;45.982;8.890;2023-01-28T13:50:58;19.38;;;9.07;;
49948;SDS011;35840;45.982;8.890;2023-01-28T13:53:34;17.33;;;9.65;;
49948;SDS011;35840;45.982;8.890;2023-01-28T14:10:44;19.05;;;9.73;;
49948;SDS011;35840;45.982;8.890;2023-01-28T14:18:55;15.23;;;8.55;;
49948;SDS011;35840;45.982;8.890;2023-01-28T14:21:25;15.88;;;7.80;;
49948;SDS011;35840;45.982;8.890;2023-01-28T14:23:54;15.32;;;8.93;;
49948;SDS011;35840;45.982;8.890;2023-01-28T14:29:34;12.52;;;7.90;;
49948;SDS011;35840;45.982;8.890;2023-01-28T14:32:18;16.83;;;9.45;;
49948;SDS011;35840;45.982;8.890;2023-01-28T14:34:52;13.88;;;8.55;;
49948;SDS011;35840;45.982;8.890;2023-01-28T14:37:21;17.15;;;7.95;;
49948;SDS011;35840;45.982;8.890;2023-01-28T14:39:58;14.70;;;8.07;;
49948;SDS011;35840;45.982;8.890;2023-01-28T14:42:31;13.60;;;7.63;;
49948;SDS011;35840;45.982;8.890;2023-01-28T14:50:44;14.27;;;8.05;;
49948;SDS011;35840;45.982;8.890;2023-01-28T14:56:19;12.90;;;6.90;;
49948;SDS011;35840;45.982;8.890;2023-01-28T14:58:56;13.50;;;7.10;;
49948;SDS011;35840;45.982;8.890;2023-01-28T15:01:29;14.32;;;7.90;;
49948;SDS011;35840;45.982;8.890;2023-01-28T15:03:56;17.17;;;7.80;;
49948;SDS011;35840;45.982;8.890;2023-01-28T15:06:24;14.23;;;7.38;;
49948;SDS011;35840;45.982;8.890;2023-01-28T15:09:07;11.00;;;6.80;;
49948;SDS011;35840;45.982;8.890;2023-01-28T15:11:38;15.60;;;7.90;;
49948;SDS011;35840;45.982;8.890;2023-01-28T15:14:21;12.95;;;6.28;;
49948;SDS011;35840;45.982;8.890;2023-01-28T15:16:52;16.35;;;7.72;;
49948;SDS011;35840;45.982;8.890;2023-01-28T15:19:31;12.57;;;7.25;;
49948;SDS011;35840;45.982;8.890;2023-01-28T15:22:04;14.13;;;9.18;;
49948;SDS011;35840;45.982;8.890;2023-01-28T15:24:33;14.82;;;7.93;;
49948;SDS011;35840;45.982;8.890;2023-01-28T15:27:00;15.77;;;7.47;;
49948;SDS011;35840;45.982;8.890;2023-01-28T15:29:32;11.80;;;7.38;;
49948;SDS011;35840;45.982;8.890;2023-01-28T15:32:01;13.68;;;8.05;;
49948;SDS011;35840;45.982;8.890;2023-01-28T15:34:29;14.00;;;7.80;;
49948;SDS011;35840;45.982;8.890;2023-01-28T15:36:57;11.98;;;7.78;;
49948;SDS011;35840;45.982;8.890;2023-01-28T15:39:25;16.38;;;8.13;;
49948;SDS011;35840;45.982;8.890;2023-01-28T15:41:58;15.88;;;7.57;;
49948;SDS011;35840;45.982;8.890;2023-01-28T15:44:34;17.30;;;8.02;;
49948;SDS011;35840;45.982;8.890;2023-01-28T15:47:10;13.57;;;7.63;;
49948;SDS011;35840;45.982;8.890;2023-01-28T15:49:44;13.70;;;7.75;;
49948;SDS011;35840;45.982;8.890;2023-01-28T15:52:12;13.75;;;7.72;;
49948;SDS011;35840;45.982;8.890;2023-01-28T15:54:41;14.50;;;7.93;;
49948;SDS011;35840;45.982;8.890;2023-01-28T15:57:20;15.23;;;8.65;;
49948;SDS011;35840;45.982;8.890;2023-01-28T16:02:43;13.50;;;7.35;;
49948;SDS011;35840;45.982;8.890;2023-01-28T16:07:54;14.18;;;7.53;;
49948;SDS011;35840;45.982;8.890;2023-01-28T16:10:26;12.45;;;7.95;;
49948;SDS011;35840;45.982;8.890;2023-01-28T16:13:00;12.98;;;6.65;;
49948;SDS011;35840;45.982;8.890;2023-01-28T16:15:31;12.75;;;7.60;;
49948;SDS011;35840;45.982;8.890;2023-01-28T16:17:59;16.25;;;7.80;;
49948;SDS011;35840;45.982;8.890;2023-01-28T16:20:27;16.85;;;8.40;;
49948;SDS011;35840;45.982;8.890;2023-01-28T16:22:59;15.25;;;7.90;;
49948;SDS011;35840;45.982;8.890;2023-01-28T16:25:32;18.80;;;7.07;;
49948;SDS011;35840;45.982;8.890;2023-01-28T16:28:02;12.43;;;7.10;;
49948;SDS011;35840;45.982;8.890;2023-01-28T16:30:37;18.13;;;9.02;;
49948;SDS011;35840;45.982;8.890;2023-01-28T16:33:04;13.95;;;7.40;;
49948;SDS011;35840;45.982;8.890;2023-01-28T16:35:30;13.98;;;7.65;;
49948;SDS011;35840;45.982;8.890;2023-01-28T16:38:17;13.20;;;7.68;;
49948;SDS011;35840;45.982;8.890;2023-01-28T16:40:45;16.05;;;8.23;;
49948;SDS011;35840;45.982;8.890;2023-01-28T16:43:13;16.63;;;8.13;;
49948;SDS011;35840;45.982;8.890;2023-01-28T16:45:41;22.63;;;9.57;;
49948;SDS011;35840;45.982;8.890;2023-01-28T16:48:08;20.48;;;9.65;;
49948;SDS011;35840;45.982;8.890;2023-01-28T16:50:35;19.40;;;10.90;;
49948;SDS011;35840;45.982;8.890;2023-01-28T16:53:05;19.00;;;9.82;;
49948;SDS011;35840;45.982;8.890;2023-01-28T16:55:43;14.82;;;8.45;;
49948;SDS011;35840;45.982;8.890;2023-01-28T16:58:09;20.92;;;10.55;;
49948;SDS011;35840;45.982;8.890;2023-01-28T17:00:36;18.08;;;8.93;;
49948;SDS011;35840;45.982;8.890;2023-01-28T17:03:04;15.50;;;8.77;;
49948;SDS011;35840;45.982;8.890;2023-01-28T17:05:31;13.55;;;8.18;;
49948;SDS011;35840;45.982;8.890;2023-01-28T17:07:57;14.85;;;9.18;;
49948;SDS011;35840;45.982;8.890;2023-01-28T17:10:24;20.00;;;10.82;;
49948;SDS011;35840;45.982;8.890;2023-01-28T17:12:51;17.80;;;10.75;;
49948;SDS011;35840;45.982;8.890;2023-01-28T17:15:18;18.85;;;11.27;;
49948;SDS011;35840;45.982;8.890;2023-01-28T17:17:48;44.08;;;21.65;;
49948;SDS011;35840;45.982;8.890;2023-01-28T17:20:16;20.05;;;10.35;;
49948;SDS011;35840;45.982;8.890;2023-01-28T17:22:42;16.27;;;8.95;;
49948;SDS011;35840;45.982;8.890;2023-01-28T17:25:10;16.65;;;9.25;;
49948;SDS011;35840;45.982;8.890;2023-01-28T17:27:36;15.23;;;8.75;;